KRNC/RNC METAR and TAF weather

Enter ICAO airport designator
Station Type Date Time Source
KRNC METAR 2021/10/20 05:55 UTC NOAA

KRNC 200555Z AUTO 00000KT 9SM CLR 07/07 A3022 RMK A01


Station Type Date Time Source
KRNC Decoded METAR 2021/10/20 05:55 UTC NOAA

Station name not available
Oct 20, 2021 - 01:55 AM EDT / 2021.10.20 0555 UTC
Wind: Calm:0
Visibility: 9 mile(s):0
Sky conditions: clear
Temperature: 44 F (7 C)
Dew Point: 44 F (7 C)
Relative Humidity: 100%
Pressure (altimeter): 30.22 in. Hg (1023 hPa)
ob: KRNC 200555Z AUTO 00000KT 9SM CLR 07/07 A3022 RMK A01
cycle: 6

Station Type Date Time Source
KRNC TAF 2009/08/31 19:45 UTC NOAA

METAR KRNC 311945Z AUTO 35008KT 10SM CLR 25/12 A3011
RMK AO1 T02500116 $

Example: see airport list